X  Sluiten METAR luchtvaart weer gegevens      EBBR Brussels Airport
Temperatuur
17°C Temperatuur
12°C Dauwpunt
73% Vochtigheid



Wind
13 KM/U
8 MPH
4 M/S
7 KTS



230°
ZW
Huidig weer

Wat bewolking Wat bewolking
Luchtdruk 1016.92 (hPa) - 30.03 (inHg)
Zicht 6.2 (mijl) - 10 (km)
Vliegveld
Vliegveld code EBBR

Locatie : Brussels Airport
Afstand: 14 (km)

Metar:
EBBR 291220Z 23007KT 200V270 9999 FEW020 17/12 Q1017 BECMG FM1400 BKN010

Tijd: 09-29-2020 14:20 CEST